Nashville, Tennessee
Traffic Map
Current Weather Conditions
Nashville, Tennessee
Scattered Clouds
Scattered Clouds
48°
Feels Like: 44°
Wind Chill: 44° Ceiling: Unl
Heat Index: 48° Visibility: 10mi
Dew Point: 29° Wind: 8mph
Humidity: 48% Direction: 260° (W)
Pressure: 30in Gusts: 0mph
Raw Report DataKBNA 231553Z 26007KT 10SM SCT038 09/M02 A3000 RMK AO2 SLP158 T00891017
Traffic Incident Summary
Active as of:
Severity:
Category:
InformationThere was an issue retrieving the traffic information for this location. Please try a different location or try again shortly.
Advertisements